createdAt,value
2022-09-01T00:00:03.910Z,100.00
2022-09-01T00:02:32.643Z,100.00
2022-09-01T00:05:04.715Z,100.00
2022-09-01T00:07:36.457Z,100.00
2022-09-01T00:10:09.357Z,100.00
2022-09-01T00:12:39.571Z,100.00
2022-09-01T00:15:11.825Z,100.00
2022-09-01T00:17:41.528Z,100.00
2022-09-01T00:20:15.880Z,100.00
2022-09-01T00:22:48.175Z,100.00
2022-09-01T00:25:19.654Z,100.00
2022-09-01T00:27:50.021Z,100.00
2022-09-01T00:30:20.573Z,100.00
2022-09-01T00:32:50.144Z,100.00
2022-09-01T00:35:21.703Z,100.00
2022-09-01T00:37:52.634Z,100.00
2022-09-01T00:40:21.335Z,100.00
2022-09-01T00:42:50.220Z,100.00
2022-09-01T00:45:23.086Z,100.00
2022-09-01T00:47:52.067Z,100.00
2022-09-01T00:50:22.301Z,100.00
2022-09-01T00:52:56.748Z,100.00
2022-09-01T00:55:32.783Z,100.00
2022-09-01T00:58:03.658Z,100.00
2022-09-01T01:00:41.931Z,100.00
2022-09-01T01:03:12.294Z,100.00
2022-09-01T01:05:54.408Z,100.00
2022-09-01T01:08:34.442Z,100.00
2022-09-01T01:11:05.746Z,100.00
2022-09-01T01:13:38.488Z,100.00
2022-09-01T01:16:08.410Z,100.00
2022-09-01T01:18:37.590Z,100.00
2022-09-01T01:21:33.444Z,100.00
2022-09-01T01:24:12.075Z,100.00
2022-09-01T01:26:43.544Z,100.00
2022-09-01T01:29:12.128Z,100.00
2022-09-01T01:31:41.057Z,100.00
2022-09-01T01:34:10.980Z,100.00
2022-09-01T01:36:42.280Z,100.00
2022-09-01T01:39:15.029Z,100.00
2022-09-01T01:41:48.964Z,100.00
2022-09-01T01:44:21.483Z,100.00
2022-09-01T01:46:53.427Z,100.00
2022-09-01T01:49:29.827Z,100.00
2022-09-01T01:51:59.687Z,100.00
2022-09-01T01:54:33.278Z,100.00
2022-09-01T01:57:04.662Z,100.00
2022-09-01T01:59:34.603Z,100.00
2022-09-01T02:02:09.902Z,100.00
2022-09-01T02:04:40.433Z,100.00
2022-09-01T02:07:13.326Z,100.00
2022-09-01T02:09:46.150Z,100.00
2022-09-01T02:12:19.540Z,100.00
2022-09-01T02:14:48.687Z,100.00
2022-09-01T02:17:17.178Z,100.00
2022-09-01T02:19:48.224Z,100.00
2022-09-01T02:22:19.848Z,100.00
2022-09-01T02:24:49.822Z,100.00
2022-09-01T02:27:22.648Z,100.00
2022-09-01T02:29:55.484Z,100.00
2022-09-01T02:32:25.000Z,100.00
2022-09-01T02:35:01.357Z,100.00
2022-09-01T02:37:30.557Z,100.00
2022-09-01T02:39:59.597Z,100.00
2022-09-01T02:42:29.721Z,100.00
2022-09-01T02:44:59.216Z,100.00
2022-09-01T02:47:31.166Z,100.00
2022-09-01T02:50:03.589Z,100.00
2022-09-01T02:52:40.526Z,100.00
2022-09-01T02:55:11.814Z,100.00
2022-09-01T02:57:42.252Z,100.00
2022-09-01T03:00:20.878Z,100.00
2022-09-01T03:02:53.052Z,100.00
2022-09-01T03:05:26.091Z,100.00
2022-09-01T03:07:57.930Z,100.00
2022-09-01T03:10:33.405Z,100.00
2022-09-01T03:13:07.596Z,100.00
2022-09-01T03:15:38.752Z,100.00
2022-09-01T03:18:10.188Z,100.00
2022-09-01T03:20:43.446Z,100.00
2022-09-01T03:23:19.234Z,100.00
2022-09-01T03:25:50.005Z,100.00
2022-09-01T03:28:20.240Z,100.00
2022-09-01T03:30:53.227Z,100.00
2022-09-01T03:33:25.136Z,100.00
2022-09-01T03:35:56.928Z,100.00
2022-09-01T03:38:27.023Z,100.00
2022-09-01T03:41:02.770Z,100.00
2022-09-01T03:43:35.954Z,100.00
2022-09-01T03:46:08.423Z,100.00
2022-09-01T03:48:37.854Z,100.00
2022-09-01T03:51:07.921Z,100.00
2022-09-01T03:53:40.440Z,100.00
2022-09-01T03:56:10.031Z,100.00
2022-09-01T03:58:44.685Z,100.00
2022-09-01T04:01:14.260Z,100.00
2022-09-01T04:03:49.145Z,100.00
2022-09-01T04:06:19.831Z,100.00
2022-09-01T04:08:49.052Z,100.00
2022-09-01T04:11:24.377Z,100.00
2022-09-01T04:13:54.724Z,100.00
2022-09-01T04:16:44.777Z,100.00
2022-09-01T04:19:25.909Z,100.00
2022-09-01T04:22:00.353Z,100.00
2022-09-01T04:24:32.275Z,100.00
2022-09-01T04:27:03.343Z,100.00
2022-09-01T04:29:34.334Z,100.00
2022-09-01T04:32:07.029Z,100.00
2022-09-01T04:34:40.130Z,100.00
2022-09-01T04:37:13.285Z,100.00
2022-09-01T04:39:52.674Z,100.00
2022-09-01T04:42:25.667Z,100.00
2022-09-01T04:44:57.757Z,100.00
2022-09-01T04:47:36.169Z,100.00
2022-09-01T04:50:14.309Z,100.00
2022-09-01T04:52:44.333Z,100.00
2022-09-01T04:55:18.731Z,100.00
2022-09-01T04:57:50.161Z,100.00
2022-09-01T05:00:26.202Z,100.00
2022-09-01T05:03:03.460Z,100.00
2022-09-01T05:05:42.604Z,100.00
2022-09-01T05:08:23.203Z,100.00
2022-09-01T05:10:57.292Z,100.00
2022-09-01T05:13:29.901Z,100.00
2022-09-01T05:16:07.563Z,100.00
2022-09-01T05:18:36.910Z,100.00
2022-09-01T05:21:10.136Z,100.00
2022-09-01T05:23:40.680Z,100.00
2022-09-01T05:26:17.065Z,100.00
2022-09-01T05:28:45.960Z,100.00
2022-09-01T05:31:19.854Z,100.00
2022-09-01T05:33:50.274Z,100.00
2022-09-01T05:36:23.146Z,100.00
2022-09-01T05:38:52.719Z,100.00
2022-09-01T05:41:24.078Z,100.00
2022-09-01T05:44:00.336Z,100.00
2022-09-01T05:46:31.465Z,100.00
2022-09-01T05:49:00.760Z,100.00
2022-09-01T05:51:44.288Z,100.00
2022-09-01T05:54:15.254Z,100.00
2022-09-01T05:56:45.470Z,100.00
2022-09-01T05:59:24.762Z,100.00
2022-09-01T06:01:57.021Z,100.00
2022-09-01T06:04:27.857Z,100.00
2022-09-01T06:07:05.573Z,100.00
2022-09-01T06:09:40.484Z,100.00
2022-09-01T06:12:18.424Z,100.00
2022-09-01T06:14:49.591Z,100.00
2022-09-01T06:17:25.275Z,100.00
2022-09-01T06:19:56.297Z,100.00
2022-09-01T06:22:28.789Z,100.00
2022-09-01T06:25:02.800Z,100.00
2022-09-01T06:27:32.036Z,100.00
2022-09-01T06:30:01.641Z,100.00
2022-09-01T06:32:33.872Z,100.00
2022-09-01T06:35:04.132Z,100.00
2022-09-01T06:37:35.156Z,100.00
2022-09-01T06:40:06.508Z,100.00
2022-09-01T06:42:35.841Z,100.00
2022-09-01T06:45:04.692Z,100.00
2022-09-01T06:47:35.580Z,100.00
2022-09-01T06:50:08.592Z,100.00
2022-09-01T06:55:34.807Z,100.00
2022-09-01T06:58:07.314Z,100.00
2022-09-01T07:00:42.619Z,100.00
2022-09-01T07:03:15.893Z,100.00
2022-09-01T07:06:04.650Z,100.00
2022-09-01T07:14:22.334Z,100.00
2022-09-01T07:16:53.432Z,100.00
2022-09-01T07:19:49.006Z,100.00
2022-09-01T07:25:11.945Z,100.00
2022-09-01T07:27:49.750Z,100.00
2022-09-01T07:30:24.237Z,100.00
2022-09-01T07:32:54.244Z,100.00
2022-09-01T07:35:25.991Z,100.00
2022-09-01T07:38:47.716Z,100.00
2022-09-01T07:43:34.276Z,100.00
2022-09-01T07:51:50.245Z,100.00
2022-09-01T07:54:21.359Z,100.00
2022-09-01T07:56:51.075Z,100.00
2022-09-01T07:59:21.299Z,100.00
2022-09-01T08:01:50.713Z,100.00
2022-09-01T08:04:23.879Z,100.00
2022-09-01T08:06:55.952Z,100.00
2022-09-01T08:09:37.002Z,100.00
2022-09-01T08:12:07.903Z,100.00
2022-09-01T08:14:36.702Z,100.00
2022-09-01T08:19:56.391Z,100.00
2022-09-01T08:22:27.016Z,100.00
2022-09-01T08:24:57.228Z,100.00
2022-09-01T08:27:25.840Z,100.00
2022-09-01T08:29:54.571Z,100.00
2022-09-01T08:32:23.197Z,100.00
2022-09-01T08:34:52.097Z,100.00
2022-09-01T08:37:22.203Z,100.00
2022-09-01T08:39:52.964Z,100.00
2022-09-01T08:42:41.267Z,100.00
2022-09-01T08:45:21.662Z,100.00
2022-09-01T08:48:22.480Z,100.00
2022-09-01T08:50:51.149Z,100.00
2022-09-01T08:53:32.676Z,100.00
2022-09-01T08:56:04.849Z,100.00
2022-09-01T08:58:34.241Z,100.00
2022-09-01T09:01:12.465Z,100.00
2022-09-01T09:03:58.438Z,100.00
2022-09-01T09:06:39.931Z,100.00
2022-09-01T09:09:11.037Z,100.00
2022-09-01T09:12:16.507Z,100.00
2022-09-01T09:15:07.016Z,100.00
2022-09-01T09:17:43.788Z,100.00
2022-09-01T09:20:12.378Z,100.00
2022-09-01T09:22:44.437Z,100.00
2022-09-01T09:25:19.465Z,100.00
2022-09-01T09:28:00.608Z,100.00
2022-09-01T09:30:33.228Z,100.00
2022-09-01T09:35:57.485Z,100.00
2022-09-01T09:38:30.424Z,100.00
2022-09-01T09:41:17.196Z,100.00
2022-09-01T09:43:59.029Z,100.00
2022-09-01T09:46:37.029Z,100.00
2022-09-01T09:49:36.533Z,100.00
2022-09-01T09:52:19.520Z,100.00
2022-09-01T09:55:23.036Z,100.00
2022-09-01T09:57:57.615Z,100.00
2022-09-01T10:00:31.701Z,100.00
2022-09-01T10:03:07.872Z,100.00
2022-09-01T10:05:45.274Z,99.78
2022-09-01T10:08:37.532Z,98.52
2022-09-01T10:11:08.301Z,97.52
2022-09-01T10:13:37.794Z,96.75
2022-09-01T10:16:24.279Z,96.03
2022-09-01T10:19:00.770Z,95.05
2022-09-01T10:21:37.984Z,94.91
2022-09-01T10:24:21.085Z,94.68
2022-09-01T10:26:58.501Z,94.69
2022-09-01T10:29:35.171Z,94.46
2022-09-01T10:32:34.622Z,93.16
2022-09-01T10:35:05.005Z,94.04
2022-09-01T10:37:35.922Z,94.26
2022-09-01T10:40:30.372Z,91.90
2022-09-01T10:43:22.915Z,92.44
2022-09-01T10:45:57.684Z,90.91
2022-09-01T10:48:46.363Z,91.22
2022-09-01T10:51:51.713Z,90.11
2022-09-01T10:55:02.703Z,89.46
2022-09-01T10:57:45.883Z,88.87
2022-09-01T11:04:02.110Z,87.67
2022-09-01T11:07:26.864Z,88.93
2022-09-01T11:10:34.237Z,86.97
2022-09-01T11:13:44.251Z,86.53
2022-09-01T11:16:51.896Z,86.76
2022-09-01T11:19:44.467Z,85.60
2022-09-01T11:22:27.623Z,85.37
2022-09-01T11:25:40.658Z,84.74
2022-09-01T11:28:44.205Z,84.56
2022-09-01T11:31:39.219Z,82.75
2022-09-01T11:34:21.194Z,83.53
2022-09-01T11:37:03.179Z,82.71
2022-09-01T11:39:44.217Z,83.15
2022-09-01T11:42:26.531Z,82.26
2022-09-01T11:45:03.233Z,82.88
2022-09-01T11:47:38.923Z,83.40
2022-09-01T11:50:20.479Z,83.49
2022-09-01T11:53:04.796Z,82.64
2022-09-01T11:55:37.079Z,82.63
2022-09-01T11:58:07.445Z,83.30
2022-09-01T12:00:39.065Z,81.90
2022-09-01T12:03:22.541Z,80.57
2022-09-01T12:06:01.750Z,80.68
2022-09-01T12:08:39.224Z,80.27
2022-09-01T12:11:13.099Z,79.80
2022-09-01T12:13:55.465Z,80.19
2022-09-01T12:16:24.305Z,79.45
2022-09-01T12:18:56.701Z,79.02
2022-09-01T12:21:29.078Z,79.66
2022-09-01T12:24:20.097Z,79.18
2022-09-01T12:26:51.663Z,78.63
2022-09-01T12:29:21.222Z,79.05
2022-09-01T12:31:52.861Z,79.92
2022-09-01T12:34:41.022Z,77.56
2022-09-01T12:37:24.318Z,76.66
2022-09-01T12:39:57.579Z,77.21
2022-09-01T12:42:41.537Z,77.15
2022-09-01T12:45:15.218Z,76.91
2022-09-01T12:47:52.520Z,76.31
2022-09-01T12:50:45.684Z,75.78
2022-09-01T12:53:24.104Z,74.84
2022-09-01T12:56:25.402Z,73.18
2022-09-01T12:59:16.056Z,72.76
2022-09-01T13:01:47.186Z,73.85
2022-09-01T13:04:31.052Z,73.13
2022-09-01T13:07:06.332Z,71.50
2022-09-01T13:09:35.384Z,70.61
2022-09-01T13:12:20.309Z,69.63
2022-09-01T13:14:49.465Z,68.89
2022-09-01T13:17:19.184Z,69.43
2022-09-01T13:19:48.390Z,68.95
2022-09-01T13:22:16.966Z,68.49
2022-09-01T13:24:45.499Z,68.18
2022-09-01T13:27:22.930Z,68.19
2022-09-01T13:29:52.783Z,66.51
2022-09-01T13:32:24.136Z,67.58
2022-09-01T13:34:55.764Z,66.97
2022-09-01T13:37:25.491Z,66.64
2022-09-01T13:39:54.692Z,65.45
2022-09-01T13:42:28.601Z,66.72
2022-09-01T13:44:58.065Z,67.09
2022-09-01T13:47:29.166Z,66.38
2022-09-01T13:50:09.927Z,66.60
2022-09-01T13:52:45.379Z,66.72
2022-09-01T13:55:17.939Z,66.60
2022-09-01T13:57:49.037Z,66.63
2022-09-01T14:00:24.280Z,65.55
2022-09-01T14:02:57.026Z,66.34
2022-09-01T14:05:29.579Z,67.01
2022-09-01T14:07:58.847Z,64.10
2022-09-01T14:10:31.971Z,64.71
2022-09-01T14:13:02.626Z,64.12
2022-09-01T14:15:31.681Z,65.11
2022-09-01T14:18:01.091Z,63.00
2022-09-01T14:20:36.935Z,63.42
2022-09-01T14:23:07.954Z,62.71
2022-09-01T14:25:38.982Z,62.58
2022-09-01T14:28:08.963Z,63.07
2022-09-01T14:30:37.991Z,63.49
2022-09-01T14:33:07.888Z,62.64
2022-09-01T14:35:40.716Z,62.25
2022-09-01T14:38:11.036Z,61.65
2022-09-01T14:40:42.276Z,62.96
2022-09-01T14:43:14.393Z,62.27
2022-09-01T14:45:46.019Z,62.17
2022-09-01T14:48:16.749Z,62.89
2022-09-01T14:50:49.998Z,62.78
2022-09-01T14:53:19.524Z,62.39
2022-09-01T14:55:50.513Z,62.79
2022-09-01T14:58:22.854Z,63.54
2022-09-01T15:00:52.698Z,62.88
2022-09-01T15:03:22.904Z,63.44
2022-09-01T15:05:52.300Z,63.46
2022-09-01T15:08:22.091Z,62.82
2022-09-01T15:10:50.930Z,61.88
2022-09-01T15:13:19.523Z,60.43
2022-09-01T15:15:49.501Z,59.67
2022-09-01T15:18:18.252Z,59.76
2022-09-01T15:20:46.802Z,59.60
2022-09-01T15:23:17.609Z,59.25
2022-09-01T15:25:47.019Z,58.43
2022-09-01T15:28:16.417Z,58.41
2022-09-01T15:30:49.146Z,58.11
2022-09-01T15:33:18.347Z,58.30
2022-09-01T15:35:48.064Z,58.34
2022-09-01T15:38:18.281Z,57.63
2022-09-01T15:40:58.033Z,58.19
2022-09-01T15:43:34.514Z,58.40
2022-09-01T15:46:06.147Z,58.98
2022-09-01T15:48:34.794Z,58.72
2022-09-01T15:51:32.495Z,59.00
2022-09-01T15:54:04.546Z,58.46
2022-09-01T15:56:35.240Z,59.79
2022-09-01T15:59:06.701Z,59.03
2022-09-01T16:01:42.281Z,59.55
2022-09-01T16:04:19.094Z,59.49
2022-09-01T16:06:49.548Z,59.64
2022-09-01T16:09:21.158Z,58.36
2022-09-01T16:11:49.879Z,59.20
2022-09-01T16:14:21.736Z,59.26
2022-09-01T16:17:04.120Z,58.62
2022-09-01T16:19:48.391Z,59.06
2022-09-01T16:22:23.718Z,59.42
2022-09-01T16:24:57.946Z,58.74
2022-09-01T16:27:34.722Z,58.36
2022-09-01T16:30:08.135Z,57.86
2022-09-01T16:32:40.641Z,58.17
2022-09-01T16:35:09.835Z,58.42
2022-09-01T16:37:53.748Z,57.20
2022-09-01T16:40:42.623Z,58.12
2022-09-01T16:43:26.607Z,57.23
2022-09-01T16:46:09.206Z,57.53
2022-09-01T16:48:53.781Z,57.25
2022-09-01T16:51:32.739Z,56.88
2022-09-01T16:54:21.679Z,57.18
2022-09-01T16:56:58.878Z,57.49
2022-09-01T16:59:40.040Z,56.33
2022-09-01T17:02:35.802Z,56.99
2022-09-01T17:05:22.058Z,57.24
2022-09-01T17:07:58.278Z,57.74
2022-09-01T17:10:42.149Z,58.07
2022-09-01T17:13:20.541Z,56.51
2022-09-01T17:16:02.727Z,57.23
2022-09-01T17:18:39.128Z,57.36
2022-09-01T17:21:21.976Z,57.58
2022-09-01T17:23:58.873Z,58.81
2022-09-01T17:26:30.754Z,58.55
2022-09-01T17:29:10.475Z,58.59
2022-09-01T17:32:03.560Z,59.36
2022-09-01T17:34:49.993Z,59.57
2022-09-01T17:37:40.061Z,60.20
2022-09-01T17:40:20.718Z,60.41
2022-09-01T17:43:03.128Z,61.21
2022-09-01T17:45:45.500Z,61.68
2022-09-01T17:48:21.398Z,62.33
2022-09-01T17:51:04.233Z,62.44
2022-09-01T17:53:50.742Z,63.02
2022-09-01T17:56:53.135Z,63.67
2022-09-01T17:59:33.891Z,64.31
2022-09-01T18:02:24.791Z,64.53
2022-09-01T18:05:09.750Z,65.58
2022-09-01T18:08:02.454Z,66.28
2022-09-01T18:10:41.398Z,66.79
2022-09-01T18:13:36.181Z,67.77
2022-09-01T18:16:18.819Z,68.50
2022-09-01T18:18:51.204Z,69.14
2022-09-01T18:21:24.703Z,70.13
2022-09-01T18:24:03.067Z,70.95
2022-09-01T18:26:38.098Z,70.83
2022-09-01T18:29:07.544Z,71.59
2022-09-01T18:32:08.489Z,72.35
2022-09-01T18:35:11.660Z,73.22
2022-09-01T18:37:59.649Z,73.82
2022-09-01T18:40:36.953Z,74.80
2022-09-01T18:43:23.664Z,74.10
2022-09-01T18:46:00.236Z,74.03
2022-09-01T18:48:50.230Z,74.95
2022-09-01T18:51:36.607Z,75.28
2022-09-01T18:54:15.598Z,75.89
2022-09-01T18:56:53.680Z,75.60
2022-09-01T18:59:50.400Z,75.72
2022-09-01T19:02:48.438Z,76.07
2022-09-01T19:05:33.367Z,76.80
2022-09-01T19:08:18.465Z,78.81
2022-09-01T19:10:54.924Z,78.43
2022-09-01T19:13:49.672Z,80.55
2022-09-01T19:16:39.679Z,80.43
2022-09-01T19:19:31.832Z,79.86
2022-09-01T19:22:01.981Z,80.07
2022-09-01T19:24:41.794Z,79.89
2022-09-01T19:27:15.261Z,80.93
2022-09-01T19:29:52.589Z,81.75
2022-09-01T19:32:28.799Z,81.91
2022-09-01T19:35:00.922Z,81.92
2022-09-01T19:37:29.638Z,82.72
2022-09-01T19:39:58.182Z,83.67
2022-09-01T19:42:35.580Z,84.36
2022-09-01T19:45:14.835Z,84.26
2022-09-01T19:47:53.268Z,84.44
2022-09-01T19:50:32.018Z,84.52
2022-09-01T19:53:08.450Z,85.63
2022-09-01T19:55:49.028Z,87.07
2022-09-01T19:58:25.401Z,87.17
2022-09-01T20:00:58.086Z,87.61
2022-09-01T20:03:38.117Z,88.36
2022-09-01T20:06:12.692Z,87.93
2022-09-01T20:08:49.320Z,87.95
2022-09-01T20:11:30.057Z,88.04
2022-09-01T20:14:26.752Z,88.01
2022-09-01T20:17:02.292Z,88.68
2022-09-01T20:19:42.211Z,89.93
2022-09-01T20:22:31.069Z,91.70
2022-09-01T20:25:10.793Z,91.47
2022-09-01T20:27:56.998Z,91.94
2022-09-01T20:30:31.305Z,92.72
2022-09-01T20:33:06.145Z,93.17
2022-09-01T20:35:47.206Z,94.20
2022-09-01T20:38:42.106Z,93.59
2022-09-01T20:41:19.263Z,93.61
2022-09-01T20:43:54.285Z,93.51
2022-09-01T20:46:25.909Z,93.68
2022-09-01T20:48:55.227Z,93.87
2022-09-01T20:51:39.228Z,95.19
2022-09-01T20:54:25.749Z,95.89
2022-09-01T20:57:12.074Z,95.86
2022-09-01T20:59:50.405Z,96.60
2022-09-01T21:02:40.542Z,96.58
2022-09-01T21:05:28.282Z,97.29
2022-09-01T21:08:19.255Z,97.76
2022-09-01T21:10:59.053Z,97.36
2022-09-01T21:13:52.939Z,99.11
2022-09-01T21:16:38.291Z,99.93
2022-09-01T21:19:20.653Z,100.00
2022-09-01T21:22:03.984Z,100.00
2022-09-01T21:24:34.255Z,100.00
2022-09-01T21:27:07.392Z,100.00
2022-09-01T21:29:50.890Z,100.00
2022-09-01T21:32:21.799Z,100.00
2022-09-01T21:34:53.080Z,100.00
2022-09-01T21:37:24.030Z,100.00
2022-09-01T21:39:58.050Z,100.00
2022-09-01T21:42:31.227Z,100.00
2022-09-01T21:45:01.733Z,100.00
2022-09-01T21:47:32.306Z,100.00
2022-09-01T21:50:01.309Z,100.00
2022-09-01T21:52:30.081Z,100.00
2022-09-01T21:55:00.449Z,100.00
2022-09-01T21:57:29.413Z,100.00
2022-09-01T21:59:58.014Z,100.00
2022-09-01T22:02:28.448Z,100.00
2022-09-01T22:04:57.570Z,100.00
2022-09-01T22:07:27.358Z,100.00
2022-09-01T22:09:57.816Z,100.00
2022-09-01T22:12:27.997Z,100.00
2022-09-01T22:14:56.498Z,100.00
2022-09-01T22:17:28.194Z,100.00
2022-09-01T22:19:57.445Z,100.00
2022-09-01T22:22:26.415Z,100.00
2022-09-01T22:24:55.073Z,100.00
2022-09-01T22:27:23.748Z,100.00
2022-09-01T22:29:53.636Z,100.00
2022-09-01T22:32:23.227Z,100.00
2022-09-01T22:34:52.058Z,100.00
2022-09-01T22:37:20.831Z,100.00
2022-09-01T22:39:49.967Z,100.00
2022-09-01T22:42:19.577Z,100.00
2022-09-01T22:44:49.970Z,100.00
2022-09-01T22:47:20.012Z,100.00
2022-09-01T22:49:49.515Z,100.00
2022-09-01T22:52:18.279Z,100.00
2022-09-01T22:54:47.074Z,100.00
2022-09-01T22:57:16.896Z,100.00
2022-09-01T22:59:45.994Z,100.00
2022-09-01T23:02:14.887Z,100.00
2022-09-01T23:04:46.853Z,100.00
2022-09-01T23:07:15.593Z,100.00
2022-09-01T23:09:44.760Z,100.00
2022-09-01T23:12:13.655Z,100.00
2022-09-01T23:14:43.478Z,100.00
2022-09-01T23:17:12.627Z,100.00
2022-09-01T23:19:41.762Z,100.00
2022-09-01T23:22:12.632Z,100.00
2022-09-01T23:24:41.210Z,100.00
2022-09-01T23:27:10.510Z,100.00
2022-09-01T23:29:39.406Z,100.00
2022-09-01T23:32:09.258Z,100.00
2022-09-01T23:34:37.904Z,100.00
2022-09-01T23:37:08.431Z,100.00
2022-09-01T23:39:38.358Z,100.00
2022-09-01T23:42:07.768Z,100.00
2022-09-01T23:44:36.967Z,100.00
2022-09-01T23:47:07.019Z,100.00
2022-09-01T23:49:35.865Z,100.00
2022-09-01T23:52:05.555Z,100.00
2022-09-01T23:54:34.584Z,100.00
2022-09-01T23:57:05.427Z,100.00
2022-09-01T23:59:34.388Z,100.00
